Time;durP1;ratioP1;P1;durP2;ratioP2;P2;SDS_P1;SDS_P2;PMS_P1;PMS_P2;Temp;Humidity;BMP_temperature;BMP_pressure;BME280_temperature;BME280_humidity;BME280_pressure;Samples;Min_cycle;Max_cycle;Signal;HPM_P1;HPM_P2
2023/07/23 00:00:58;;;;;;;4.20;3.20;;;;;;;19.08;76.57;97890.44;4132593;28;20653;-84
2023/07/23 00:03:02;;;;;;;5.17;3.30;;;;;;;19.03;77.12;97888.28;4130568;28;20645;-84
2023/07/23 00:05:06;;;;;;;6.57;3.33;;;;;;;18.98;77.38;97892.38;4123779;28;20734;-84
2023/07/23 00:07:09;;;;;;;4.67;3.50;;;;;;;18.93;77.23;97889.38;4122421;28;20794;-84
2023/07/23 00:09:12;;;;;;;3.83;3.10;;;;;;;18.90;76.07;97881.78;4130432;28;21943;-84
2023/07/23 00:11:16;;;;;;;4.70;3.43;;;;;;;18.88;77.30;97896.94;4119859;28;20667;-84
2023/07/23 00:13:20;;;;;;;3.90;3.20;;;;;;;18.85;77.52;97891.16;4112173;28;20679;-84
2023/07/23 00:15:22;;;;;;;5.37;3.97;;;;;;;18.81;77.72;97881.88;4131480;28;21014;-84
2023/07/23 00:17:25;;;;;;;4.23;3.53;;;;;;;18.80;77.56;97888.19;4107236;28;21263;-84
2023/07/23 00:19:28;;;;;;;3.90;2.90;;;;;;;18.79;77.49;97887.34;4124188;28;20728;-84
2023/07/23 00:21:32;;;;;;;4.43;3.37;;;;;;;18.76;77.46;97890.28;4121335;28;20656;-87
2023/07/23 00:23:35;;;;;;;4.50;3.50;;;;;;;18.74;78.17;97891.47;4123336;28;20648;-85
2023/07/23 00:25:38;;;;;;;5.97;4.40;;;;;;;18.69;78.14;97881.38;4131751;28;21053;-85
2023/07/23 00:27:43;;;;;;;4.47;3.97;;;;;;;18.65;78.21;97887.94;4117971;28;21257;-85
2023/07/23 00:29:46;;;;;;;4.77;3.30;;;;;;;18.60;78.61;97887.59;4115700;28;20646;-85
2023/07/23 00:31:49;;;;;;;5.20;3.50;;;;;;;18.56;78.33;97878.34;4128822;28;20645;-85
2023/07/23 00:33:52;;;;;;;4.70;3.20;;;;;;;18.53;78.53;97883.13;4132053;28;21240;-85
2023/07/23 00:35:55;;;;;;;5.03;3.40;;;;;;;18.51;78.40;97891.19;4114248;28;21077;-85
2023/07/23 00:37:59;;;;;;;5.00;4.20;;;;;;;18.48;78.22;97880.13;4119609;28;20646;-85
2023/07/23 00:40:02;;;;;;;4.50;3.70;;;;;;;18.45;78.65;97880.44;4120366;28;20716;-85
2023/07/23 00:42:07;;;;;;;6.17;3.50;;;;;;;18.41;78.91;97875.63;4107669;28;20674;-85
2023/07/23 00:44:12;;;;;;;5.60;3.40;;;;;;;18.39;78.66;97877.59;4099508;28;21262;-85
2023/07/23 00:46:15;;;;;;;4.90;3.30;;;;;;;18.35;78.74;97889.47;4105943;28;20649;-85
2023/07/23 00:48:19;;;;;;;4.30;3.20;;;;;;;18.33;78.90;97878.22;4128790;28;20629;-85
2023/07/23 00:50:22;;;;;;;4.53;3.53;;;;;;;18.28;79.34;97885.78;4117429;28;21024;-85
2023/07/23 00:52:25;;;;;;;4.63;3.77;;;;;;;18.25;79.01;97881.66;4116373;28;20684;-84
2023/07/23 00:54:29;;;;;;;5.43;3.20;;;;;;;18.20;79.49;97876.00;4098435;28;20741;-85
2023/07/23 00:56:33;;;;;;;4.90;3.67;;;;;;;18.20;79.69;97888.38;4119641;28;20653;-85
2023/07/23 00:58:35;;;;;;;5.80;4.10;;;;;;;18.18;78.82;97882.44;4103560;28;21106;-86
2023/07/23 01:00:39;;;;;;;6.07;3.57;;;;;;;18.13;80.32;97877.63;4130768;28;20657;-84
2023/07/23 01:02:43;;;;;;;4.53;3.90;;;;;;;18.12;79.05;97877.75;4119166;28;20659;-84
2023/07/23 01:04:47;;;;;;;5.23;3.10;;;;;;;18.09;80.03;97870.16;4126670;28;20690;-85
2023/07/23 01:06:52;;;;;;;4.97;4.00;;;;;;;18.06;79.87;97881.03;4102568;28;20665;-85
2023/07/23 01:08:56;;;;;;;5.67;3.40;;;;;;;18.03;79.10;97876.06;4109378;28;20655;-85
2023/07/23 01:10:59;;;;;;;4.40;3.50;;;;;;;17.98;80.20;97865.09;4122425;28;20638;-85
2023/07/23 01:13:03;;;;;;;5.50;3.70;;;;;;;17.96;80.02;97872.38;4121070;28;21706;-85
2023/07/23 01:15:08;;;;;;;4.07;3.43;;;;;;;17.94;80.44;97875.16;4109804;28;21012;-85
2023/07/23 01:17:16;;;;;;;4.33;3.90;;;;;;;17.90;79.87;97864.25;4115126;28;20658;-85
2023/07/23 01:19:19;;;;;;;4.73;3.70;;;;;;;17.84;80.41;97865.69;4107009;28;20668;-85
2023/07/23 01:21:24;;;;;;;4.80;4.07;;;;;;;17.84;81.05;97867.50;4099754;28;20727;-87
2023/07/23 01:23:30;;;;;;;4.40;3.63;;;;;;;17.83;81.09;97861.41;4114567;28;20959;-86
2023/07/23 01:25:34;;;;;;;5.50;3.50;;;;;;;17.81;80.53;97866.00;4121955;28;20678;-84
2023/07/23 01:27:38;;;;;;;5.90;4.00;;;;;;;17.79;81.26;97865.34;4103014;28;21124;-86
2023/07/23 01:29:41;;;;;;;6.17;3.43;;;;;;;17.76;81.11;97864.81;4119083;28;21255;-86
2023/07/23 01:31:45;;;;;;;4.40;3.30;;;;;;;17.73;81.25;97855.41;4122037;28;20705;-86
2023/07/23 01:33:48;;;;;;;3.93;3.47;;;;;;;17.73;80.47;97851.94;4112456;28;20678;-85
2023/07/23 01:35:53;;;;;;;4.17;3.50;;;;;;;17.71;80.39;97854.72;4109286;28;21247;-84
2023/07/23 01:37:57;;;;;;;4.30;3.40;;;;;;;17.68;81.50;97851.53;4101388;28;20657;-85
2023/07/23 01:40:03;;;;;;;5.60;3.67;;;;;;;17.65;80.60;97852.69;4107837;28;20691;-85
2023/07/23 01:42:09;;;;;;;6.57;3.70;;;;;;;17.62;80.53;97858.28;4101240;28;20653;-85
2023/07/23 01:44:12;;;;;;;4.10;3.17;;;;;;;17.61;80.42;97850.53;4099814;28;20669;-85
2023/07/23 01:46:16;;;;;;;4.50;3.20;;;;;;;17.58;80.45;97850.84;4098895;28;21216;-85
2023/07/23 01:48:22;;;;;;;4.60;3.60;;;;;;;17.51;81.88;97845.34;4102677;28;20656;-85
2023/07/23 01:50:26;;;;;;;4.40;3.17;;;;;;;17.49;81.58;97846.47;4117475;28;20656;-85
2023/07/23 01:52:29;;;;;;;4.10;3.60;;;;;;;17.47;82.18;97845.81;4099870;28;20751;-85
2023/07/23 01:54:32;;;;;;;4.87;4.07;;;;;;;17.45;82.22;97841.66;4132454;28;20656;-85
2023/07/23 01:56:37;;;;;;;4.50;3.30;;;;;;;17.41;82.46;97843.78;4116297;28;20662;-85
2023/07/23 01:58:41;;;;;;;4.77;3.63;;;;;;;17.37;80.90;97842.41;4117976;28;20674;-85
2023/07/23 02:00:44;;;;;;;6.97;3.57;;;;;;;17.35;81.14;97849.66;4111204;28;20693;-85
2023/07/23 02:02:48;;;;;;;4.80;3.40;;;;;;;17.34;82.24;97852.44;4135148;28;20737;-86
2023/07/23 02:04:52;;;;;;;4.53;3.50;;;;;;;17.31;81.78;97840.38;4114730;28;20676;-84
2023/07/23 02:06:55;;;;;;;6.13;3.60;;;;;;;17.27;81.84;97851.38;4111740;28;20734;-85
2023/07/23 02:08:59;;;;;;;7.77;4.33;;;;;;;17.25;82.46;97848.91;4114723;28;20676;-85
2023/07/23 02:11:03;;;;;;;4.30;3.90;;;;;;;17.25;81.52;97848.09;4103679;28;21240;-84
2023/07/23 02:13:09;;;;;;;4.60;3.77;;;;;;;17.21;83.09;97841.44;4113644;28;20661;-85
2023/07/23 02:15:13;;;;;;;4.97;3.70;;;;;;;17.19;82.00;97844.19;4113644;28;20659;-84
2023/07/23 02:17:16;;;;;;;5.97;4.00;;;;;;;17.16;82.44;97854.22;4117985;28;20768;-84
2023/07/23 02:19:20;;;;;;;4.57;3.40;;;;;;;17.13;81.84;97844.00;4106718;28;20752;-85
2023/07/23 02:21:24;;;;;;;4.77;3.67;;;;;;;17.10;81.79;97844.28;4106909;28;20715;-84
2023/07/23 02:23:27;;;;;;;4.80;3.90;;;;;;;17.08;83.37;97840.97;4135781;28;20750;-85
2023/07/23 02:25:30;;;;;;;5.57;3.60;;;;;;;17.06;82.97;97853.47;4117882;28;20655;-84
2023/07/23 02:27:34;;;;;;;5.27;3.77;;;;;;;17.04;81.86;97848.34;4124521;28;20639;-85
2023/07/23 02:29:40;;;;;;;4.83;3.90;;;;;;;17.00;83.48;97848.78;4117298;28;21297;-84
2023/07/23 02:31:43;;;;;;;6.20;3.80;;;;;;;16.98;81.82;97855.22;4121410;28;20755;-85
2023/07/23 02:33:47;;;;;;;5.10;3.87;;;;;;;16.94;82.16;97848.56;4102977;28;20700;-84
2023/07/23 02:35:50;;;;;;;5.10;3.63;;;;;;;16.91;84.20;97848.88;4097881;28;20648;-84
2023/07/23 02:37:54;;;;;;;6.40;3.40;;;;;;;16.87;83.49;97850.97;4101977;28;20752;-84
2023/07/23 02:39:58;;;;;;;7.20;3.77;;;;;;;16.85;82.89;97855.53;4111020;28;20638;-84
2023/07/23 02:42:01;;;;;;;5.17;4.03;;;;;;;16.84;82.67;97847.78;4121650;28;20677;-85
2023/07/23 02:44:05;;;;;;;4.87;3.20;;;;;;;16.81;83.55;97851.56;4124809;28;20691;-84
2023/07/23 02:46:10;;;;;;;4.30;3.37;;;;;;;16.80;84.04;97855.19;4126228;28;21023;-84
2023/07/23 02:48:12;;;;;;;5.27;3.90;;;;;;;16.78;84.72;97846.59;4098777;28;20651;-85
2023/07/23 02:50:16;;;;;;;5.87;3.67;;;;;;;16.78;83.64;97849.22;4116849;28;20649;-85
2023/07/23 02:52:19;;;;;;;6.10;3.80;;;;;;;16.77;82.85;97858.09;4124794;28;20655;-85
2023/07/23 02:54:22;;;;;;;4.83;3.90;;;;;;;16.77;83.16;97860.75;4103234;28;21718;-85
2023/07/23 02:56:26;;;;;;;4.37;3.53;;;;;;;16.77;82.95;97860.75;4108123;28;20660;-85
2023/07/23 02:58:30;;;;;;;5.50;4.33;;;;;;;16.73;82.82;97858.53;4108571;28;20651;-84
2023/07/23 03:00:33;;;;;;;5.20;4.00;;;;;;;16.72;82.62;97864.81;4122016;28;20656;-84
2023/07/23 03:02:38;;;;;;;5.50;3.70;;;;;;;16.69;83.84;97859.84;4134210;28;20658;-85
2023/07/23 03:04:42;;;;;;;5.13;4.03;;;;;;;16.67;82.87;97853.88;4124834;28;20703;-84
2023/07/23 03:06:45;;;;;;;3.63;3.13;;;;;;;16.63;82.94;97857.78;4118039;28;20684;-85
2023/07/23 03:08:49;;;;;;;5.27;4.13;;;;;;;16.61;83.40;97857.94;4107506;28;20643;-84
2023/07/23 03:10:53;;;;;;;4.40;4.00;;;;;;;16.57;84.78;97856.56;4102989;28;20652;-85
2023/07/23 03:12:56;;;;;;;4.90;4.10;;;;;;;16.57;83.67;97864.47;4111291;28;20761;-85
2023/07/23 03:15:00;;;;;;;4.73;3.37;;;;;;;16.52;83.89;97856.19;4103184;28;20705;-85
2023/07/23 03:17:04;;;;;;;6.27;4.50;;;;;;;16.50;83.41;97855.47;4132953;28;20731;-85
2023/07/23 03:19:09;;;;;;;5.97;4.03;;;;;;;16.49;85.63;97860.91;4130995;28;21236;-85
2023/07/23 03:21:13;;;;;;;4.70;3.50;;;;;;;16.47;84.95;97859.41;4103864;28;21317;-84
2023/07/23 03:23:20;;;;;;;5.27;3.57;;;;;;;16.46;84.82;97861.19;4127536;28;20713;-84
2023/07/23 03:25:30;;;;;;;6.10;4.20;;;;;;;16.43;83.70;97860.66;4135404;28;20682;-85
2023/07/23 03:27:32;;;;;;;5.27;3.60;;;;;;;16.41;86.08;97865.25;4122266;28;20655;-85
2023/07/23 03:29:36;;;;;;;8.10;3.50;;;;;;;16.41;83.83;97854.72;4128140;28;20697;-84
2023/07/23 03:31:39;;;;;;;4.30;3.90;;;;;;;16.39;85.85;97852.22;4120396;28;20650;-84
2023/07/23 03:33:43;;;;;;;4.70;3.50;;;;;;;16.39;85.71;97860.13;4115596;28;21208;-85
2023/07/23 03:35:47;;;;;;;4.97;3.33;;;;;;;16.37;84.27;97869.13;4103803;28;21067;-85
2023/07/23 03:37:51;;;;;;;4.97;3.70;;;;;;;16.34;86.34;97861.53;4119687;28;20668;-84
2023/07/23 03:39:54;;;;;;;4.50;3.80;;;;;;;16.30;86.48;97861.00;4121386;28;20665;-84
2023/07/23 03:41:57;;;;;;;4.77;3.60;;;;;;;16.27;85.09;97863.09;4110070;28;20692;-84
2023/07/23 03:44:00;;;;;;;5.37;4.03;;;;;;;16.26;86.57;97856.19;4111303;28;20655;-84
2023/07/23 03:46:03;;;;;;;5.37;4.13;;;;;;;16.26;85.46;97858.81;4124551;28;20753;-84
2023/07/23 03:48:07;;;;;;;5.13;3.50;;;;;;;16.25;86.16;97865.03;4112934;28;21212;-84
2023/07/23 03:50:11;;;;;;;5.87;3.50;;;;;;;16.21;86.18;97859.22;4103630;28;21072;-84
2023/07/23 03:52:15;;;;;;;5.93;3.80;;;;;;;16.21;86.09;97858.38;4116028;28;20703;-85
2023/07/23 03:54:18;;;;;;;4.60;3.63;;;;;;;16.21;86.31;97864.47;4101045;28;20674;-85
2023/07/23 03:56:21;;;;;;;5.13;4.10;;;;;;;16.22;84.83;97865.31;4109468;28;21210;-84
2023/07/23 03:58:24;;;;;;;5.13;3.80;;;;;;;16.20;85.19;97864.63;4129457;28;20654;-84
2023/07/23 04:00:27;;;;;;;4.60;3.73;;;;;;;16.22;84.79;97867.97;4109215;28;20652;-84
2023/07/23 04:02:31;;;;;;;4.33;3.20;;;;;;;16.22;85.33;97867.97;4110689;28;20656;-84
2023/07/23 04:04:34;;;;;;;5.30;4.10;;;;;;;16.21;85.92;97864.47;4121309;28;20662;-84
2023/07/23 04:06:38;;;;;;;4.40;3.43;;;;;;;16.21;85.71;97868.91;4096211;28;21109;-84
2023/07/23 04:08:42;;;;;;;5.23;3.70;;;;;;;16.19;85.91;97866.44;4105453;28;20653;-85
2023/07/23 04:10:45;;;;;;;4.63;3.57;;;;;;;16.17;86.93;97863.09;4113510;28;21226;-84
2023/07/23 04:12:49;;;;;;;5.10;3.17;;;;;;;16.17;86.83;97867.53;4116205;28;21463;-84
2023/07/23 04:14:52;;;;;;;6.10;4.40;;;;;;;16.21;87.01;97868.91;4118872;28;20653;-84
2023/07/23 04:16:56;;;;;;;5.17;3.47;;;;;;;16.22;85.93;97875.84;4123558;28;20686;-84
2023/07/23 04:18:59;;;;;;;4.47;3.60;;;;;;;16.24;85.51;97880.00;4131408;28;21092;-84
2023/07/23 04:21:02;;;;;;;5.30;3.70;;;;;;;16.29;84.93;97882.22;4121445;28;21040;-84
2023/07/23 04:23:06;;;;;;;5.73;3.90;;;;;;;16.32;84.93;97880.09;4122726;28;20661;-84
2023/07/23 04:25:10;;;;;;;27.40;5.10;;;;;;;16.36;85.10;97888.56;4120872;28;20683;-84
2023/07/23 04:27:14;;;;;;;4.97;3.83;;;;;;;16.38;85.81;97881.34;4129179;28;20637;-84
2023/07/23 04:29:17;;;;;;;5.40;3.63;;;;;;;16.42;84.79;97882.69;4104049;28;20690;-84
2023/07/23 04:31:20;;;;;;;4.00;3.17;;;;;;;16.47;85.12;97891.00;4110548;28;20714;-84
2023/07/23 04:33:23;;;;;;;5.17;3.70;;;;;;;16.52;86.25;97890.41;4120722;28;21002;-84
2023/07/23 04:35:27;;;;;;;6.73;4.10;;;;;;;16.56;84.94;97889.13;4124840;28;20655;-84
2023/07/23 04:37:30;;;;;;;5.03;3.70;;;;;;;16.59;86.43;97888.84;4121014;28;20779;-84
2023/07/23 04:39:34;;;;;;;4.37;3.40;;;;;;;16.61;85.54;97889.53;4117010;28;21030;-85
2023/07/23 04:41:39;;;;;;;4.90;4.10;;;;;;;16.67;86.21;97894.22;4122562;28;20660;-84
2023/07/23 04:43:42;;;;;;;4.10;3.13;;;;;;;16.72;84.47;97891.97;4121657;28;20651;-84
2023/07/23 04:45:45;;;;;;;5.17;3.77;;;;;;;16.77;86.18;97897.63;4138530;28;21248;-84
2023/07/23 04:47:48;;;;;;;5.17;4.10;;;;;;;16.82;85.59;97891.91;4120931;28;20691;-84
2023/07/23 04:49:52;;;;;;;5.40;3.83;;;;;;;16.87;84.49;97892.28;4132131;28;20684;-84
2023/07/23 04:51:55;;;;;;;4.90;3.63;;;;;;;16.91;85.06;97894.47;4098721;28;20737;-85
2023/07/23 04:53:58;;;;;;;5.17;3.93;;;;;;;16.97;83.26;97893.88;4106551;28;20656;-84
2023/07/23 04:56:03;;;;;;;4.70;3.60;;;;;;;17.02;85.22;97896.94;4120561;28;20652;-84
2023/07/23 04:58:08;;;;;;;4.67;3.80;;;;;;;17.07;84.66;97898.13;4104419;28;20743;-84
2023/07/23 05:00:12;;;;;;;4.50;3.77;;;;;;;17.11;82.73;97896.03;4122070;28;20777;-85
2023/07/23 05:02:15;;;;;;;6.93;4.00;;;;;;;17.17;82.41;97895.41;4134719;28;20662;-84
2023/07/23 05:04:18;;;;;;;4.33;3.77;;;;;;;17.22;83.05;97904.56;4134105;28;20693;-84
2023/07/23 05:06:21;;;;;;;5.20;3.90;;;;;;;17.28;84.89;97901.31;4112246;28;20699;-84
2023/07/23 05:08:24;;;;;;;5.13;3.40;;;;;;;17.32;83.95;97896.56;4131231;28;20697;-84
2023/07/23 05:10:28;;;;;;;5.33;3.90;;;;;;;17.36;83.23;97898.75;4131500;28;20668;-84
2023/07/23 05:12:31;;;;;;;4.43;3.63;;;;;;;17.42;84.89;97902.63;4118553;28;20666;-84
2023/07/23 05:14:36;;;;;;;5.53;3.50;;;;;;;17.47;83.11;97896.72;4119106;28;20716;-84
2023/07/23 05:16:40;;;;;;;4.40;3.60;;;;;;;17.54;82.75;97900.41;4106445;28;20664;-84
2023/07/23 05:18:43;;;;;;;5.00;3.97;;;;;;;17.62;82.89;97902.28;4117091;28;20654;-84
2023/07/23 05:20:46;;;;;;;4.40;3.60;;;;;;;17.67;83.66;97903.50;4099767;28;20681;-82
2023/07/23 05:22:50;;;;;;;5.07;4.10;;;;;;;17.72;82.72;97901.22;4132372;28;20674;-83
2023/07/23 05:24:54;;;;;;;4.77;3.67;;;;;;;17.78;81.87;97911.16;4116499;28;20680;-83
2023/07/23 05:26:57;;;;;;;6.27;3.47;;;;;;;17.80;81.28;97901.31;4121471;28;20636;-82
2023/07/23 05:29:00;;;;;;;4.10;3.13;;;;;;;17.83;81.43;97906.28;4104330;28;20722;-83
2023/07/23 05:31:05;;;;;;;4.63;3.30;;;;;;;17.91;81.44;97903.69;4123667;28;20686;-82
2023/07/23 05:33:07;;;;;;;5.57;4.10;;;;;;;18.00;80.84;97905.41;4121588;28;20732;-83
2023/07/23 05:35:11;;;;;;;4.60;3.63;;;;;;;18.08;81.79;97908.91;4124075;28;21343;-83
2023/07/23 05:37:14;;;;;;;5.70;4.00;;;;;;;18.20;82.16;97907.69;4131819;28;20751;-83
2023/07/23 05:39:18;;;;;;;4.67;3.20;;;;;;;18.27;80.97;97907.91;4105701;28;20673;-83
2023/07/23 05:41:21;;;;;;;5.77;3.47;;;;;;;18.40;80.66;97908.31;4106870;28;20650;-83
2023/07/23 05:43:25;;;;;;;5.60;3.90;;;;;;;18.54;80.46;97906.72;4116109;28;21335;-83
2023/07/23 05:45:31;;;;;;;4.67;3.77;;;;;;;18.80;80.79;97923.34;4119066;28;20745;-83
2023/07/23 05:47:36;;;;;;;4.07;3.10;;;;;;;19.12;79.69;97913.75;4109055;28;20748;-83
2023/07/23 05:49:39;;;;;;;4.00;3.13;;;;;;;19.54;77.71;97925.88;4118791;28;20654;-83
2023/07/23 05:51:43;;;;;;;4.83;3.63;;;;;;;20.02;78.24;97924.09;4120796;28;20757;-83
2023/07/23 05:53:46;;;;;;;4.67;3.20;;;;;;;20.48;77.78;97928.69;4114032;28;21325;-83
2023/07/23 05:55:49;;;;;;;4.70;3.40;;;;;;;20.92;76.61;97925.41;4123607;28;20695;-84
2023/07/23 05:57:52;;;;;;;5.10;3.67;;;;;;;21.27;75.46;97926.56;4120239;28;20728;-83
2023/07/23 05:59:55;;;;;;;3.27;2.97;;;;;;;21.59;74.71;97929.03;4107253;28;20650;-83
2023/07/23 06:01:59;;;;;;;3.90;3.43;;;;;;;21.96;74.80;97929.88;4109447;28;20649;-83
2023/07/23 06:04:03;;;;;;;4.03;3.57;;;;;;;22.40;72.55;97936.16;4110184;28;20658;-83
2023/07/23 06:06:07;;;;;;;5.07;3.47;;;;;;;22.81;71.29;97940.88;4120789;28;20649;-84
2023/07/23 06:08:10;;;;;;;5.03;3.53;;;;;;;23.19;69.24;97947.75;4126999;28;20711;-83
2023/07/23 06:10:12;;;;;;;8.63;4.97;;;;;;;23.49;67.83;97947.50;4133294;28;20985;-83
2023/07/23 06:12:15;;;;;;;5.80;4.60;;;;;;;23.84;67.10;97947.50;4119224;28;21098;-83
2023/07/23 06:14:17;;;;;;;4.97;3.97;;;;;;;24.14;66.64;97944.50;4104339;28;21311;-82
2023/07/23 06:16:21;;;;;;;5.50;4.50;;;;;;;24.36;65.50;97938.16;4110421;28;20651;-82
2023/07/23 06:18:24;;;;;;;5.00;3.30;;;;;;;24.67;64.01;97942.03;4115894;28;20748;-82
2023/07/23 06:20:28;;;;;;;4.33;3.03;;;;;;;24.97;63.07;97943.47;4135070;28;20776;-82
2023/07/23 06:22:32;;;;;;;4.73;3.30;;;;;;;25.29;62.42;97944.47;4107258;28;20664;-82
2023/07/23 06:24:34;;;;;;;4.40;3.27;;;;;;;25.53;61.42;97946.63;4115058;28;20734;-84
2023/07/23 06:26:37;;;;;;;3.67;3.17;;;;;;;25.55;61.53;97944.56;4113985;28;21057;-83
2023/07/23 06:28:41;;;;;;;3.63;2.87;;;;;;;25.48;60.26;97938.38;4102644;28;20718;-82
2023/07/23 06:30:44;;;;;;;4.03;3.17;;;;;;;25.47;60.80;97931.41;4097332;28;20656;-82
2023/07/23 06:32:47;;;;;;;4.20;2.60;;;;;;;25.58;62.27;97931.63;4120042;28;20659;-82
2023/07/23 06:34:51;;;;;;;3.30;2.63;;;;;;;25.62;61.24;97934.72;4120113;28;20699;-82
2023/07/23 06:36:58;;;;;;;5.20;3.43;;;;;;;25.65;61.44;97929.81;4109186;28;20662;-82
2023/07/23 06:39:02;;;;;;;5.33;3.00;;;;;;;25.78;60.91;97926.34;4118877;28;20646;-82
2023/07/23 06:41:06;;;;;;;4.40;3.50;;;;;;;25.66;60.71;97922.63;4125322;28;20685;-82
2023/07/23 06:43:10;;;;;;;4.07;2.90;;;;;;;25.45;61.85;97912.03;4130481;28;20665;-82
2023/07/23 06:45:15;;;;;;;5.07;3.30;;;;;;;25.38;61.76;97916.56;4102574;28;20698;-82
2023/07/23 06:47:19;;;;;;;3.20;2.80;;;;;;;25.39;62.36;97912.84;4115380;28;20697;-82
2023/07/23 07:10:03;;;;;;;4.30;2.90;;;;;;;26.16;62.73;97920.19;4135394;28;20634;-82
2023/07/23 07:12:08;;;;;;;3.40;2.60;;;;;;;26.32;60.62;97915.31;4133805;28;20652;-82
2023/07/23 07:14:12;;;;;;;3.00;2.50;;;;;;;26.37;61.27;97912.00;4137375;28;20655;-82
2023/07/23 07:16:16;;;;;;;4.00;2.90;;;;;;;26.48;60.87;97917.56;4110062;28;21270;-82
2023/07/23 07:18:21;;;;;;;4.63;3.00;;;;;;;26.51;60.61;97911.81;4108310;28;20651;-82
2023/07/23 07:20:24;;;;;;;3.73;2.93;;;;;;;26.51;60.61;97906.44;4112846;28;20659;-82
2023/07/23 07:22:30;;;;;;;4.13;2.77;;;;;;;26.45;62.27;97901.91;4135095;28;20646;-82
2023/07/23 07:24:34;;;;;;;3.33;2.67;;;;;;;26.38;61.13;97906.44;4123327;28;20660;-82
2023/07/23 07:26:39;;;;;;;3.60;2.60;;;;;;;26.33;61.23;97905.44;4107780;28;20705;-82
2023/07/23 07:28:43;;;;;;;3.73;2.73;;;;;;;26.24;61.29;97899.44;4133407;28;20716;-82
2023/07/23 07:30:45;;;;;;;3.53;2.63;;;;;;;26.43;62.38;97901.31;4133977;28;20650;-82
2023/07/23 07:32:49;;;;;;;2.80;1.93;;;;;;;26.46;58.14;97894.69;4135305;28;20636;-82
2023/07/23 07:34:53;;;;;;;2.83;2.10;;;;;;;26.88;56.90;97903.91;4112696;28;21226;-82
2023/07/23 07:36:57;;;;;;;3.30;2.60;;;;;;;27.42;56.43;97902.44;4113206;28;21374;-82
2023/07/23 07:39:00;;;;;;;3.73;2.70;;;;;;;27.89;55.35;97900.16;4114059;28;20654;-81
2023/07/23 07:41:03;;;;;;;4.27;2.50;;;;;;;28.09;54.34;97893.59;4115762;28;20655;-82
2023/07/23 07:43:08;;;;;;;3.87;2.77;;;;;;;28.37;55.21;97893.16;4117468;28;20718;-83
2023/07/23 07:45:12;;;;;;;2.60;2.13;;;;;;;28.55;53.05;97907.44;4122078;28;20666;-82
2023/07/23 07:47:17;;;;;;;2.90;2.40;;;;;;;28.73;53.95;97897.59;4131877;28;20713;-82
2023/07/23 07:49:20;;;;;;;3.60;2.33;;;;;;;28.82;53.50;97892.75;4121713;28;20649;-82
2023/07/23 07:51:26;;;;;;;3.17;2.30;;;;;;;29.07;53.15;97900.50;4124554;28;20655;-82
2023/07/23 07:53:30;;;;;;;4.03;2.33;;;;;;;29.32;52.61;97895.91;4102825;28;20697;-82
2023/07/23 07:55:39;;;;;;;3.13;2.40;;;;;;;29.53;51.53;97900.78;4137217;28;20670;-82
2023/07/23 07:57:46;;;;;;;4.37;2.43;;;;;;;29.31;51.37;97894.25;4117747;28;21143;-82
2023/07/23 07:59:54;;;;;;;4.67;2.87;;;;;;;28.73;51.31;97883.31;4128517;28;20984;-81
2023/07/23 08:01:59;;;;;;;2.83;2.20;;;;;;;28.54;53.22;97877.09;4138347;28;20700;-81
2023/07/23 08:04:06;;;;;;;3.00;2.30;;;;;;;28.76;52.79;97883.72;4110284;28;20722;-82
2023/07/23 08:06:11;;;;;;;3.37;2.30;;;;;;;29.02;52.25;97883.44;4135206;28;20681;-82
2023/07/23 08:08:18;;;;;;;3.07;2.30;;;;;;;29.05;53.46;97889.16;4142793;28;20646;-81
2023/07/23 08:10:22;;;;;;;2.73;2.17;;;;;;;28.93;51.82;97878.56;4138969;28;20639;-82
2023/07/23 08:12:29;;;;;;;3.63;2.60;;;;;;;28.70;53.18;97879.25;4124207;28;20693;-81
2023/07/23 08:14:37;;;;;;;2.40;2.07;;;;;;;28.74;53.83;97879.59;4123150;28;20682;-81
2023/07/23 08:16:47;;;;;;;3.17;2.47;;;;;;;28.60;52.50;97875.41;4125257;28;20641;-82
2023/07/23 08:18:51;;;;;;;3.27;2.27;;;;;;;28.35;53.11;97866.53;4111258;28;20714;-81
2023/07/23 08:20:59;;;;;;;2.80;2.10;;;;;;;28.31;52.80;97867.19;4119410;28;20662;-82
2023/07/23 08:23:03;;;;;;;2.77;2.00;;;;;;;28.51;52.28;97880.22;4136796;28;20672;-82
2023/07/23 08:25:08;;;;;;;2.70;1.90;;;;;;;28.58;52.86;97872.94;4122733;28;20671;-81
2023/07/23 08:27:16;;;;;;;3.83;1.80;;;;;;;28.61;53.86;97869.81;4136982;28;21047;-82
2023/07/23 08:29:22;;;;;;;2.67;2.13;;;;;;;28.72;52.25;97871.78;4128118;28;20649;-81
2023/07/23 08:31:26;;;;;;;3.43;2.27;;;;;;;29.03;52.47;97868.91;4135362;28;21276;-81
2023/07/23 08:33:33;;;;;;;2.33;1.67;;;;;;;29.24;53.04;97877.34;4122189;28;21059;-81
2023/07/23 08:35:46;;;;;;;2.63;1.70;;;;;;;29.18;51.54;97882.78;4141559;28;20741;-81
2023/07/23 08:37:53;;;;;;;3.47;2.37;;;;;;;29.14;52.23;97887.00;4117959;28;20695;-80
2023/07/23 08:39:58;;;;;;;2.70;2.00;;;;;;;28.94;52.46;97878.31;4135981;28;21050;-80
2023/07/23 08:42:15;;;;;;;2.87;2.13;;;;;;;29.04;52.64;97879.44;4141519;28;20732;-80
2023/07/23 08:44:51;;;;;;;2.63;2.00;;;;;;;28.97;52.04;97880.56;4123527;28;20662;-80
2023/07/23 08:47:13;;;;;;;3.13;2.30;;;;;;;28.81;52.36;97880.38;4137827;28;20652;-80
2023/07/23 08:49:19;;;;;;;2.63;2.10;;;;;;;28.80;53.57;97879.53;4121100;28;20742;-81
2023/07/23 08:51:25;;;;;;;2.97;2.00;;;;;;;28.79;53.04;97871.69;4108706;28;20732;-80
2023/07/23 08:53:36;;;;;;;2.87;2.30;;;;;;;28.86;53.39;97877.81;4123566;28;20647;-81
2023/07/23 08:55:42;;;;;;;3.10;2.20;;;;;;;28.90;53.02;97868.25;4124027;28;20638;-80
2023/07/23 08:57:46;;;;;;;4.03;2.30;;;;;;;28.87;52.57;97871.38;4141070;28;20654;-81
2023/07/23 08:59:53;;;;;;;2.83;2.07;;;;;;;28.74;52.95;97869.69;4091843;28;20640;-81
2023/07/23 09:01:59;;;;;;;3.90;1.93;;;;;;;28.71;54.36;97864.75;4139284;28;20645;-80
2023/07/23 09:04:04;;;;;;;3.50;2.20;;;;;;;28.57;53.29;97867.78;4122695;28;20725;-81
2023/07/23 09:06:11;;;;;;;3.50;2.17;;;;;;;28.60;53.64;97864.66;4134088;28;20653;-81
2023/07/23 09:08:15;;;;;;;2.77;2.10;;;;;;;28.59;53.14;97861.13;4094420;28;20726;-81
2023/07/23 09:10:21;;;;;;;3.10;2.23;;;;;;;28.64;52.91;97861.31;4143509;28;20673;-81
2023/07/23 09:12:27;;;;;;;3.30;2.23;;;;;;;28.72;53.61;97865.59;4133109;28;20900;-81
2023/07/23 09:14:30;;;;;;;2.80;2.10;;;;;;;28.75;53.83;97859.78;4139001;28;20647;-81
2023/07/23 09:16:38;;;;;;;2.90;1.97;;;;;;;28.76;53.89;97867.59;4120484;28;21049;-81
2023/07/23 09:18:43;;;;;;;2.90;2.13;;;;;;;28.76;52.94;97877.50;4134081;28;21009;-81
2023/07/23 09:20:48;;;;;;;2.87;2.00;;;;;;;28.78;53.07;97864.69;4134559;28;20626;-81
2023/07/23 09:22:53;;;;;;;2.27;1.80;;;;;;;28.62;52.92;97874.09;4139220;28;21271;-81
2023/07/23 09:24:59;;;;;;;2.10;1.73;;;;;;;28.55;52.66;97861.78;4125255;28;21077;-82
2023/07/23 09:27:03;;;;;;;2.40;1.90;;;;;;;28.53;53.04;97859.31;4114373;28;21229;-82
2023/07/23 09:29:09;;;;;;;2.80;1.90;;;;;;;28.71;54.14;97874.69;4126168;28;20643;-82
2023/07/23 09:31:11;;;;;;;3.10;1.60;;;;;;;28.84;52.10;97872.69;4109828;28;21265;-83
2023/07/23 09:33:15;;;;;;;3.47;2.57;;;;;;;28.89;51.59;97859.38;4120096;28;20697;-82
2023/07/23 09:35:20;;;;;;;2.20;1.47;;;;;;;28.87;51.84;97863.31;4112028;28;21411;-82
2023/07/23 09:37:24;;;;;;;2.93;1.60;;;;;;;28.91;51.88;97853.78;4136252;28;20647;-83
2023/07/23 09:39:33;;;;;;;3.10;1.90;;;;;;;28.98;51.70;97869.59;4136554;28;20712;-83
2023/07/23 09:41:38;;;;;;;3.10;2.10;;;;;;;29.10;51.78;97869.66;4108631;28;20991;-82
2023/07/23 09:43:44;;;;;;;2.83;2.03;;;;;;;28.93;52.03;97859.75;4111313;28;20743;-81
2023/07/23 09:45:48;;;;;;;2.50;1.70;;;;;;;29.01;52.01;97865.66;4111222;28;21929;-82
2023/07/23 09:47:54;;;;;;;2.27;1.77;;;;;;;29.14;52.08;97873.56;4136317;28;20651;-82
2023/07/23 09:50:18;;;;;;;2.03;1.40;;;;;;;29.24;51.94;97866.59;4121853;28;21354;-82
2023/07/23 09:52:23;;;;;;;2.43;1.40;;;;;;;29.41;51.93;97864.13;4134664;28;20699;-83
2023/07/23 09:54:27;;;;;;;3.07;1.83;;;;;;;29.58;51.91;97857.88;4137450;28;21697;-82
2023/07/23 09:56:35;;;;;;;3.50;1.77;;;;;;;29.69;50.98;97865.97;4100177;28;21215;-82
2023/07/23 09:58:38;;;;;;;2.53;1.60;;;;;;;29.78;52.03;97853.84;4137476;28;20647;-82
2023/07/23 10:00:42;;;;;;;2.23;1.60;;;;;;;29.85;50.92;97854.59;4112229;28;20691;-82
2023/07/23 10:02:49;;;;;;;1.90;1.43;;;;;;;29.97;51.30;97858.13;4134644;28;21134;-82
2023/07/23 10:04:53;;;;;;;2.70;1.47;;;;;;;30.06;51.32;97846.78;4132762;28;20714;-82
2023/07/23 10:06:57;;;;;;;2.73;1.60;;;;;;;30.13;50.64;97852.91;4133988;28;20662;-82